createdAt,value
2022-12-03T00:01:00.115Z,10.13
2022-12-03T00:06:01.468Z,9.20
2022-12-03T00:11:02.901Z,8.77
2022-12-03T00:16:04.621Z,9.90
2022-12-03T00:21:06.578Z,6.97
2022-12-03T00:26:08.205Z,7.97
2022-12-03T00:31:09.787Z,7.03
2022-12-03T00:36:11.202Z,7.68
2022-12-03T00:41:12.619Z,8.45
2022-12-03T00:46:18.163Z,7.93
2022-12-03T00:51:22.334Z,7.25
2022-12-03T00:56:23.766Z,7.60
2022-12-03T01:01:25.382Z,5.95
2022-12-03T01:06:26.964Z,6.35
2022-12-03T01:11:28.338Z,6.22
2022-12-03T01:16:29.760Z,6.28
2022-12-03T01:21:31.363Z,6.00
2022-12-03T01:26:33.078Z,5.95
2022-12-03T01:31:34.450Z,6.25
2022-12-03T01:36:35.916Z,6.00
2022-12-03T01:41:38.904Z,5.97
2022-12-03T01:46:41.854Z,5.85
2022-12-03T01:51:43.420Z,5.38
2022-12-03T01:56:46.149Z,5.75
2022-12-03T02:01:47.554Z,5.70
2022-12-03T02:06:49.138Z,6.05
2022-12-03T02:11:50.659Z,5.75
2022-12-03T02:16:52.129Z,6.30
2022-12-03T02:22:23.135Z,6.40
2022-12-03T02:27:25.277Z,5.82
2022-12-03T02:32:26.735Z,5.88
2022-12-03T02:37:34.209Z,6.00
2022-12-03T02:42:35.983Z,5.38
2022-12-03T02:47:54.201Z,6.25
2022-12-03T02:52:57.757Z,5.22
2022-12-03T02:57:59.241Z,6.75
2022-12-03T03:03:02.452Z,6.35
2022-12-03T03:08:05.327Z,6.50
2022-12-03T03:13:10.471Z,6.43
2022-12-03T03:18:13.213Z,5.65
2022-12-03T03:23:21.513Z,6.47
2022-12-03T03:28:24.360Z,5.93
2022-12-03T03:33:25.840Z,6.57
2022-12-03T03:38:29.090Z,7.25
2022-12-03T03:43:31.873Z,6.40
2022-12-03T03:48:34.882Z,6.80
2022-12-03T03:53:41.448Z,7.18
2022-12-03T03:58:43.179Z,7.57
2022-12-03T04:03:44.599Z,6.80
2022-12-03T04:08:46.018Z,8.15
2022-12-03T04:13:47.349Z,8.45
2022-12-03T04:18:48.675Z,7.60
2022-12-03T04:23:50.043Z,8.88
2022-12-03T04:28:51.400Z,9.00
2022-12-03T04:33:53.216Z,6.95
2022-12-03T04:38:54.596Z,7.95
2022-12-03T04:43:55.943Z,8.48
2022-12-03T04:48:57.301Z,8.38
2022-12-03T04:53:58.713Z,8.40
2022-12-03T04:59:00.269Z,8.07
2022-12-03T05:04:01.618Z,8.70
2022-12-03T05:09:03.156Z,8.27
2022-12-03T05:14:05.007Z,8.15
2022-12-03T05:19:07.459Z,9.57
2022-12-03T05:24:08.951Z,8.23
2022-12-03T05:29:10.281Z,8.35
2022-12-03T05:34:11.678Z,8.48
2022-12-03T05:39:13.155Z,8.32
2022-12-03T05:44:20.120Z,9.63
2022-12-03T05:49:21.928Z,8.20
2022-12-03T05:54:23.306Z,8.75
2022-12-03T05:59:24.754Z,9.77
2022-12-03T06:04:26.168Z,8.32
2022-12-03T06:09:27.511Z,8.60
2022-12-03T06:14:28.917Z,8.13
2022-12-03T06:19:30.922Z,8.30
2022-12-03T06:24:32.329Z,9.60
2022-12-03T06:29:33.694Z,10.63
2022-12-03T06:34:35.404Z,8.52
2022-12-03T06:39:36.808Z,8.73
2022-12-03T06:44:38.149Z,7.50
2022-12-03T06:54:55.398Z,8.15
2022-12-03T06:59:57.047Z,7.47
2022-12-03T07:04:58.889Z,8.82
2022-12-03T07:10:00.504Z,8.60
2022-12-03T07:15:01.854Z,9.57
2022-12-03T07:20:04.105Z,8.48
2022-12-03T07:25:06.305Z,9.20
2022-12-03T07:30:08.636Z,8.05
2022-12-03T07:35:10.082Z,8.02
2022-12-03T07:40:11.981Z,7.25
2022-12-03T07:45:13.557Z,7.82
2022-12-03T07:50:15.097Z,7.63
2022-12-03T07:55:16.589Z,7.72
2022-12-03T08:00:18.786Z,6.57
2022-12-03T08:05:20.266Z,8.13
2022-12-03T08:10:22.496Z,7.50
2022-12-03T08:15:39.619Z,7.20
2022-12-03T08:20:42.434Z,7.22
2022-12-03T08:25:45.310Z,8.23
2022-12-03T08:31:09.652Z,7.47
2022-12-03T08:36:26.816Z,6.95
2022-12-03T08:41:29.770Z,6.53
2022-12-03T08:46:31.187Z,8.23
2022-12-03T08:51:32.633Z,6.97
2022-12-03T08:56:35.963Z,7.05
2022-12-03T09:01:48.514Z,7.00
2022-12-03T09:06:51.377Z,6.68
2022-12-03T09:11:53.421Z,7.80
2022-12-03T09:16:56.235Z,7.43
2022-12-03T09:21:57.899Z,6.10
2022-12-03T09:26:59.605Z,7.60
2022-12-03T09:32:27.955Z,6.68
2022-12-03T09:37:29.414Z,6.72
2022-12-03T09:42:30.888Z,6.93
2022-12-03T09:47:32.377Z,7.82
2022-12-03T09:52:34.462Z,6.88
2022-12-03T09:57:35.951Z,7.30
2022-12-03T10:02:37.439Z,6.60
2022-12-03T10:07:39.715Z,7.28
2022-12-03T10:12:41.166Z,7.43
2022-12-03T10:17:42.996Z,7.53
2022-12-03T10:22:44.338Z,6.70
2022-12-03T10:28:01.100Z,8.30
2022-12-03T10:33:15.875Z,7.18
2022-12-03T10:38:21.460Z,9.00
2022-12-03T10:43:26.683Z,10.48
2022-12-03T10:48:28.126Z,9.05
2022-12-03T10:53:38.564Z,8.15
2022-12-03T10:58:43.866Z,7.75
2022-12-03T11:03:45.998Z,7.15
2022-12-03T11:08:56.789Z,8.18
2022-12-03T11:14:04.031Z,10.15
2022-12-03T11:19:16.042Z,9.63
2022-12-03T11:24:20.789Z,10.23
2022-12-03T11:29:51.955Z,8.88
2022-12-03T11:34:53.660Z,8.07
2022-12-03T11:40:00.681Z,7.90
2022-12-03T11:45:05.085Z,8.30
2022-12-03T11:50:40.673Z,7.60
2022-12-03T11:55:45.306Z,8.02
2022-12-03T12:00:51.774Z,10.98
2022-12-03T12:06:13.610Z,9.50
2022-12-03T12:11:32.198Z,8.88
2022-12-03T12:16:53.964Z,8.25
2022-12-03T12:21:56.079Z,7.85
2022-12-03T12:27:08.824Z,9.02
2022-12-03T12:32:10.284Z,8.40
2022-12-03T12:37:33.617Z,8.63
2022-12-03T12:42:44.261Z,9.13
2022-12-03T12:48:10.063Z,8.05
2022-12-03T12:53:17.581Z,8.00
2022-12-03T12:58:19.855Z,8.50
2022-12-03T13:03:24.293Z,8.90
2022-12-03T13:08:32.142Z,9.43
2022-12-03T13:13:44.177Z,9.05
2022-12-03T13:18:48.445Z,9.35
2022-12-03T13:23:57.214Z,9.00
2022-12-03T13:29:02.436Z,9.70
2022-12-03T13:34:14.001Z,10.13
2022-12-03T13:39:27.174Z,8.23
2022-12-03T13:44:30.315Z,8.50
2022-12-03T13:49:32.008Z,8.98
2022-12-03T13:54:34.378Z,10.82
2022-12-03T13:59:35.736Z,9.25
2022-12-03T14:04:37.130Z,8.68
2022-12-03T14:09:38.553Z,10.18
2022-12-03T14:14:39.906Z,11.65
2022-12-03T14:19:41.349Z,10.77
2022-12-03T14:24:42.784Z,9.45
2022-12-03T14:40:47.523Z,9.18
2022-12-03T14:45:49.128Z,9.27
2022-12-03T14:50:50.536Z,9.57
2022-12-03T14:55:51.908Z,10.85
2022-12-03T15:00:53.478Z,10.02
2022-12-03T15:05:54.981Z,11.25
2022-12-03T15:10:56.495Z,11.95
2022-12-03T15:15:57.975Z,12.63
2022-12-03T15:20:59.443Z,9.80
2022-12-03T15:26:00.852Z,10.18
2022-12-03T15:31:02.371Z,11.73
2022-12-03T15:36:03.954Z,10.85
2022-12-03T15:41:05.526Z,11.27
2022-12-03T15:46:07.142Z,12.65
2022-12-03T15:51:08.700Z,11.77
2022-12-03T15:56:10.103Z,12.05
2022-12-03T16:01:11.627Z,14.07
2022-12-03T16:06:12.967Z,12.57
2022-12-03T16:11:14.374Z,13.02
2022-12-03T16:16:15.769Z,12.75
2022-12-03T16:21:20.752Z,11.80
2022-12-03T16:26:24.799Z,12.60
2022-12-03T16:31:26.443Z,11.57
2022-12-03T16:36:27.775Z,12.10
2022-12-03T16:41:29.299Z,14.25
2022-12-03T16:46:31.050Z,13.10
2022-12-03T16:51:32.490Z,14.23
2022-12-03T16:56:33.893Z,12.38
2022-12-03T17:01:35.376Z,11.85
2022-12-03T17:06:36.803Z,13.27
2022-12-03T17:11:38.180Z,13.15
2022-12-03T17:16:39.564Z,12.80
2022-12-03T17:21:41.703Z,12.15
2022-12-03T17:26:43.051Z,13.57
2022-12-03T17:31:44.524Z,15.07
2022-12-03T17:36:46.090Z,12.50
2022-12-03T17:41:47.500Z,12.88
2022-12-03T17:46:48.890Z,12.70
2022-12-03T17:51:50.319Z,16.80
2022-12-03T17:56:51.684Z,15.25
2022-12-03T18:01:53.175Z,17.60
2022-12-03T18:06:59.036Z,14.15
2022-12-03T18:12:03.586Z,13.23
2022-12-03T18:17:05.044Z,12.35
2022-12-03T18:22:06.449Z,12.52
2022-12-03T18:27:08.078Z,12.25
2022-12-03T18:32:27.204Z,12.63
2022-12-03T18:37:31.496Z,12.05
2022-12-03T18:42:32.904Z,11.10
2022-12-03T18:47:34.341Z,11.20
2022-12-03T18:52:35.873Z,10.55
2022-12-03T18:57:37.309Z,11.45
2022-12-03T19:03:01.736Z,10.85
2022-12-03T19:08:00.852Z,9.30
2022-12-03T19:13:02.316Z,11.45
2022-12-03T19:18:04.654Z,11.10
2022-12-03T19:23:06.198Z,12.70
2022-12-03T19:28:07.949Z,12.77
2022-12-03T19:33:09.409Z,11.35
2022-12-03T19:38:10.813Z,13.30
2022-12-03T19:43:12.320Z,11.65
2022-12-03T19:48:13.702Z,11.48
2022-12-03T19:53:15.595Z,11.10
2022-12-03T19:58:17.081Z,10.13
2022-12-03T20:03:18.805Z,12.25
2022-12-03T20:08:20.301Z,10.70
2022-12-03T20:13:21.839Z,10.77
2022-12-03T20:18:23.823Z,10.90
2022-12-03T20:23:25.393Z,12.63
2022-12-03T20:28:28.496Z,12.00
2022-12-03T20:33:30.319Z,11.60
2022-12-03T20:38:34.590Z,11.85
2022-12-03T20:43:36.452Z,11.05
2022-12-03T20:48:38.616Z,11.18
2022-12-03T20:53:40.679Z,10.25
2022-12-03T20:58:42.121Z,11.70
2022-12-03T21:03:44.610Z,9.63
2022-12-03T21:08:46.434Z,10.85
2022-12-03T21:13:48.019Z,12.48
2022-12-03T21:18:49.542Z,11.00
2022-12-03T21:23:50.956Z,10.88
2022-12-03T21:28:53.819Z,12.35
2022-12-03T21:33:56.483Z,11.38
2022-12-03T21:38:57.925Z,11.15
2022-12-03T21:43:59.299Z,10.77
2022-12-03T21:49:00.733Z,11.98
2022-12-03T21:54:02.179Z,11.85
2022-12-03T21:59:04.114Z,11.02
2022-12-03T22:04:05.689Z,12.77
2022-12-03T22:09:07.077Z,11.60
2022-12-03T22:14:08.504Z,13.73
2022-12-03T22:19:10.001Z,11.80
2022-12-03T22:24:11.514Z,12.32
2022-12-03T22:29:13.192Z,12.02
2022-12-03T22:34:14.689Z,10.50
2022-12-03T22:39:16.090Z,11.77
2022-12-03T22:44:17.537Z,10.75
2022-12-03T22:49:19.096Z,11.13
2022-12-03T22:54:23.888Z,10.95
2022-12-03T22:59:37.743Z,12.07
2022-12-03T23:04:52.777Z,12.77
2022-12-03T23:10:56.937Z,11.82
2022-12-03T23:16:06.805Z,12.02
2022-12-03T23:26:42.291Z,12.97
2022-12-03T23:31:54.044Z,11.50
2022-12-03T23:37:17.282Z,10.13
2022-12-03T23:42:31.660Z,12.23
2022-12-03T23:48:12.473Z,13.30
